createdAt,value
2018-02-21T00:00:34.350Z,6.30
2018-02-21T00:01:34.329Z,6.70
2018-02-21T00:02:34.344Z,6.40
2018-02-21T00:03:34.335Z,6.70
2018-02-21T00:04:34.318Z,6.40
2018-02-21T00:05:34.316Z,6.90
2018-02-21T00:06:34.305Z,7.00
2018-02-21T00:07:34.305Z,6.90
2018-02-21T00:08:34.301Z,6.10
2018-02-21T00:09:34.292Z,6.60
2018-02-21T00:10:34.295Z,6.40
2018-02-21T00:11:34.294Z,6.90
2018-02-21T00:12:34.270Z,6.30
2018-02-21T00:13:34.272Z,6.30
2018-02-21T00:14:34.265Z,6.90
2018-02-21T00:15:34.258Z,6.10
2018-02-21T00:16:34.247Z,6.40
2018-02-21T00:17:34.249Z,6.40
2018-02-21T00:18:34.249Z,6.50
2018-02-21T00:19:34.234Z,6.30
2018-02-21T00:20:34.232Z,7.00
2018-02-21T00:21:34.222Z,6.70
2018-02-21T00:22:34.226Z,6.30
2018-02-21T00:23:34.222Z,6.60
2018-02-21T00:24:34.211Z,7.00
2018-02-21T00:25:34.208Z,6.30
2018-02-21T00:26:34.200Z,6.60
2018-02-21T00:27:34.195Z,6.40
2018-02-21T00:28:34.180Z,6.40
2018-02-21T00:29:34.182Z,6.70
2018-02-21T00:30:34.186Z,6.60
2018-02-21T00:31:34.162Z,6.60
2018-02-21T00:32:34.164Z,6.50
2018-02-21T00:33:34.156Z,6.60
2018-02-21T00:34:34.144Z,6.50
2018-02-21T00:35:34.149Z,6.70
2018-02-21T00:36:34.130Z,7.20
2018-02-21T00:37:34.126Z,6.90
2018-02-21T00:38:34.124Z,6.90
2018-02-21T00:39:34.125Z,7.00
2018-02-21T00:40:34.120Z,6.50
2018-02-21T00:41:34.122Z,6.50
2018-02-21T00:42:34.100Z,6.70
2018-02-21T00:43:34.108Z,6.50
2018-02-21T00:44:34.094Z,7.20
2018-02-21T00:45:34.087Z,6.80
2018-02-21T00:46:34.092Z,6.90
2018-02-21T00:47:34.080Z,7.00
2018-02-21T00:48:34.085Z,7.00
2018-02-21T00:49:34.068Z,6.90
2018-02-21T00:50:34.066Z,6.40
2018-02-21T00:51:34.066Z,6.60
2018-02-21T00:52:34.062Z,7.10
2018-02-21T00:53:34.044Z,7.20
2018-02-21T00:54:34.049Z,6.50
2018-02-21T00:55:34.032Z,6.90
2018-02-21T00:56:34.045Z,6.80
2018-02-21T00:57:34.031Z,6.60
2018-02-21T00:58:34.017Z,7.00
2018-02-21T00:59:34.026Z,6.80
2018-02-21T01:00:34.016Z,6.50
2018-02-21T01:01:34.000Z,7.20
2018-02-21T01:02:33.997Z,6.70
2018-02-21T01:03:33.987Z,6.60
2018-02-21T01:04:33.985Z,7.00
2018-02-21T01:05:33.980Z,6.50
2018-02-21T01:06:33.967Z,6.80
2018-02-21T01:07:33.969Z,7.20
2018-02-21T01:08:33.963Z,6.70
2018-02-21T01:09:33.957Z,7.40
2018-02-21T01:10:33.961Z,7.00
2018-02-21T01:11:33.946Z,7.10
2018-02-21T01:12:33.934Z,7.20
2018-02-21T01:13:33.942Z,7.20
2018-02-21T01:14:33.936Z,6.90
2018-02-21T01:15:33.917Z,6.80
2018-02-21T01:16:33.916Z,7.30
2018-02-21T01:17:33.915Z,6.90
2018-02-21T01:18:33.901Z,6.90
2018-02-21T01:19:33.901Z,6.90
2018-02-21T01:20:33.894Z,7.30
2018-02-21T01:21:33.890Z,7.30
2018-02-21T01:22:33.880Z,7.20
2018-02-21T01:23:33.887Z,7.20
2018-02-21T01:24:33.886Z,6.40
2018-02-21T01:25:33.880Z,7.40
2018-02-21T01:26:33.865Z,6.90
2018-02-21T01:27:33.880Z,7.20
2018-02-21T01:28:33.861Z,6.90
2018-02-21T01:29:33.852Z,7.10
2018-02-21T01:30:33.840Z,7.80
2018-02-21T01:31:33.838Z,7.30
2018-02-21T01:32:33.830Z,6.90
2018-02-21T01:33:33.827Z,7.10
2018-02-21T01:34:33.812Z,7.00
2018-02-21T01:35:33.816Z,6.70
2018-02-21T01:36:33.807Z,7.10
2018-02-21T01:37:33.806Z,7.20
2018-02-21T01:38:33.797Z,7.60
2018-02-21T01:39:33.781Z,7.00
2018-02-21T01:40:33.788Z,6.90
2018-02-21T01:41:33.782Z,7.60
2018-02-21T01:42:33.771Z,7.00
2018-02-21T01:43:33.767Z,7.30
2018-02-21T01:44:33.756Z,7.10
2018-02-21T01:45:33.767Z,7.10
2018-02-21T01:46:33.745Z,7.10
2018-02-21T01:47:33.736Z,6.70
2018-02-21T01:48:33.742Z,6.90
2018-02-21T01:49:33.738Z,6.80
2018-02-21T01:50:33.727Z,7.50
2018-02-21T01:51:33.722Z,7.10
2018-02-21T01:52:33.725Z,7.30
2018-02-21T01:53:33.725Z,7.10
2018-02-21T01:54:33.706Z,7.40
2018-02-21T01:55:33.706Z,7.20
2018-02-21T01:56:33.709Z,7.40
2018-02-21T01:57:33.702Z,7.30
2018-02-21T01:58:33.681Z,7.80
2018-02-21T01:59:33.688Z,8.00
2018-02-21T02:00:33.666Z,7.30
2018-02-21T02:01:33.668Z,7.50
2018-02-21T02:02:33.663Z,7.60
2018-02-21T02:03:33.658Z,7.50
2018-02-21T02:04:33.654Z,7.20
2018-02-21T02:05:33.645Z,7.50
2018-02-21T02:06:33.646Z,7.50
2018-02-21T02:07:33.631Z,7.90
2018-02-21T02:08:33.637Z,7.40
2018-02-21T02:09:33.626Z,7.10
2018-02-21T02:10:33.620Z,7.50
2018-02-21T02:11:33.607Z,7.50
2018-02-21T02:12:33.607Z,7.40
2018-02-21T02:13:33.611Z,7.50
2018-02-21T02:14:33.598Z,7.40
2018-02-21T02:15:33.590Z,7.40
2018-02-21T02:16:33.592Z,7.30
2018-02-21T02:17:33.581Z,7.60
2018-02-21T02:18:33.579Z,8.00
2018-02-21T02:19:33.579Z,7.40
2018-02-21T02:20:33.567Z,7.90
2018-02-21T02:21:33.561Z,7.80
2018-02-21T02:22:33.558Z,7.60
2018-02-21T02:23:33.541Z,8.40
2018-02-21T02:24:33.546Z,7.60
2018-02-21T02:25:33.532Z,7.10
2018-02-21T02:26:33.535Z,7.60
2018-02-21T02:27:33.531Z,7.50
2018-02-21T02:28:33.518Z,7.60
2018-02-21T02:29:33.510Z,7.50
2018-02-21T02:30:33.526Z,7.40
2018-02-21T02:31:33.508Z,7.60
2018-02-21T02:32:33.504Z,7.80
2018-02-21T02:33:33.491Z,7.80
2018-02-21T02:34:33.487Z,7.80
2018-02-21T02:35:33.482Z,7.50
2018-02-21T02:36:33.474Z,7.70
2018-02-21T02:37:33.469Z,7.80
2018-02-21T02:38:33.473Z,7.80
2018-02-21T02:39:33.461Z,7.70
2018-02-21T02:40:33.452Z,7.60
2018-02-21T02:41:33.459Z,7.90
2018-02-21T02:42:33.457Z,7.40
2018-02-21T02:43:33.443Z,7.30
2018-02-21T02:44:33.427Z,7.40
2018-02-21T02:45:33.422Z,7.40
2018-02-21T02:46:33.417Z,7.80
2018-02-21T02:47:33.418Z,7.50
2018-02-21T02:48:33.399Z,7.40
2018-02-21T02:49:33.418Z,7.70
2018-02-21T02:50:33.413Z,7.50
2018-02-21T02:51:33.393Z,7.50
2018-02-21T02:52:33.379Z,7.90
2018-02-21T02:53:33.382Z,7.90
2018-02-21T02:54:33.372Z,7.60
2018-02-21T02:55:33.371Z,7.50
2018-02-21T02:56:33.369Z,8.20
2018-02-21T02:57:33.357Z,7.60
2018-02-21T02:58:33.358Z,7.70
2018-02-21T02:59:34.323Z,7.70
2018-02-21T03:00:33.337Z,8.10
2018-02-21T03:01:33.330Z,7.70
2018-02-21T03:02:33.329Z,7.80
2018-02-21T03:03:33.317Z,7.70
2018-02-21T03:04:33.316Z,8.20
2018-02-21T03:05:33.325Z,8.00
2018-02-21T03:06:33.294Z,8.00
2018-02-21T03:07:33.330Z,8.10
2018-02-21T03:08:33.304Z,7.60
2018-02-21T03:09:33.282Z,7.50
2018-02-21T03:10:33.283Z,7.80
2018-02-21T03:11:33.276Z,7.90
2018-02-21T03:12:33.274Z,7.90
2018-02-21T03:13:33.274Z,7.70
2018-02-21T03:14:33.267Z,7.60
2018-02-21T03:15:33.254Z,7.90
2018-02-21T03:16:33.249Z,8.40
2018-02-21T03:17:33.237Z,8.00
2018-02-21T03:18:33.237Z,7.80
2018-02-21T03:19:33.238Z,8.10
2018-02-21T03:20:33.229Z,7.90
2018-02-21T03:21:33.224Z,7.70
2018-02-21T03:22:33.220Z,7.80
2018-02-21T03:23:33.207Z,8.10
2018-02-21T03:24:33.209Z,8.20
2018-02-21T03:25:33.199Z,7.50
2018-02-21T03:26:33.199Z,7.80
2018-02-21T03:27:33.192Z,7.90
2018-02-21T03:28:33.187Z,7.80
2018-02-21T03:29:33.173Z,7.60
2018-02-21T03:30:33.173Z,8.00
2018-02-21T03:31:33.171Z,7.80
2018-02-21T03:32:33.149Z,7.80
2018-02-21T03:33:33.157Z,7.90
2018-02-21T03:34:33.139Z,8.10
2018-02-21T03:35:33.148Z,8.10
2018-02-21T03:36:33.149Z,7.70
2018-02-21T03:37:33.129Z,8.20
2018-02-21T03:38:33.128Z,8.30
2018-02-21T03:39:33.130Z,8.30
2018-02-21T03:40:33.117Z,7.70
2018-02-21T03:41:33.108Z,7.90
2018-02-21T03:42:33.107Z,8.20
2018-02-21T03:43:33.103Z,8.00
2018-02-21T03:44:33.097Z,7.50
2018-02-21T03:45:33.088Z,8.30
2018-02-21T03:46:33.082Z,7.60
2018-02-21T03:47:33.079Z,7.90
2018-02-21T03:48:33.075Z,7.90
2018-02-21T03:49:33.061Z,7.90
2018-02-21T03:50:33.060Z,8.30
2018-02-21T03:51:33.061Z,7.80
2018-02-21T03:52:33.054Z,8.00
2018-02-21T03:53:33.034Z,8.00
2018-02-21T03:54:33.039Z,8.90
2018-02-21T03:55:33.035Z,7.70
2018-02-21T03:56:33.034Z,8.10
2018-02-21T03:57:33.038Z,7.70
2018-02-21T03:58:33.018Z,8.10
2018-02-21T03:59:33.015Z,8.10
2018-02-21T04:00:33.013Z,8.10
2018-02-21T04:01:32.999Z,8.10
2018-02-21T04:02:32.995Z,7.70
2018-02-21T04:03:32.993Z,8.40
2018-02-21T04:04:32.979Z,7.80
2018-02-21T04:05:32.982Z,8.00
2018-02-21T04:06:32.969Z,8.10
2018-02-21T04:07:32.960Z,8.60
2018-02-21T04:08:32.963Z,7.40
2018-02-21T04:09:32.958Z,8.40
2018-02-21T04:10:32.949Z,8.70
2018-02-21T04:11:32.942Z,7.90
2018-02-21T04:12:32.943Z,8.00
2018-02-21T04:13:32.932Z,8.10
2018-02-21T04:14:32.928Z,8.10
2018-02-21T04:15:32.929Z,8.10
2018-02-21T04:16:32.914Z,8.30
2018-02-21T04:17:32.914Z,7.80
2018-02-21T04:18:32.901Z,8.20
2018-02-21T04:19:32.899Z,8.50
2018-02-21T04:20:32.895Z,8.70
2018-02-21T04:21:32.890Z,7.90
2018-02-21T04:22:32.879Z,8.40
2018-02-21T04:23:32.873Z,8.10
2018-02-21T04:24:32.900Z,7.80
2018-02-21T04:25:32.864Z,7.90
2018-02-21T04:26:32.865Z,8.00
2018-02-21T04:27:32.855Z,8.30
2018-02-21T04:28:32.849Z,8.00
2018-02-21T04:29:32.844Z,8.10
2018-02-21T04:30:32.835Z,8.20
2018-02-21T04:31:32.829Z,8.40
2018-02-21T04:32:32.826Z,8.20
2018-02-21T04:33:32.815Z,7.90
2018-02-21T04:34:32.820Z,8.40
2018-02-21T04:35:32.804Z,8.10
2018-02-21T04:36:32.813Z,7.90
2018-02-21T04:37:32.813Z,7.80
2018-02-21T04:38:32.791Z,8.10
2018-02-21T04:39:32.790Z,7.70
2018-02-21T04:40:32.795Z,8.20
2018-02-21T04:41:32.779Z,8.30
2018-02-21T04:42:32.764Z,7.90
2018-02-21T04:43:32.771Z,8.40
2018-02-21T04:44:32.750Z,7.80
2018-02-21T04:45:32.769Z,8.10
2018-02-21T04:46:32.745Z,8.40
2018-02-21T04:47:32.740Z,8.40
2018-02-21T04:48:32.741Z,7.90
2018-02-21T04:49:32.738Z,8.10
2018-02-21T04:50:32.725Z,8.50
2018-02-21T04:51:32.721Z,8.20
2018-02-21T04:52:32.715Z,8.40
2018-02-21T04:53:32.701Z,8.60
2018-02-21T04:54:32.705Z,8.30
2018-02-21T04:55:32.701Z,7.70
2018-02-21T04:56:32.701Z,8.20
2018-02-21T04:57:32.679Z,8.10
2018-02-21T04:58:32.671Z,8.20
2018-02-21T04:59:32.676Z,8.50
2018-02-21T05:00:32.671Z,8.20
2018-02-21T05:01:32.669Z,8.50
2018-02-21T05:02:32.652Z,8.40
2018-02-21T05:03:32.656Z,8.80
2018-02-21T05:04:32.650Z,8.40
2018-02-21T05:05:32.633Z,8.20
2018-02-21T05:06:32.634Z,8.60
2018-02-21T05:07:32.630Z,8.60
2018-02-21T05:08:32.624Z,8.00
2018-02-21T05:09:32.626Z,8.70
2018-02-21T05:10:32.615Z,8.10
2018-02-21T05:11:32.602Z,8.00
2018-02-21T05:12:32.609Z,8.50
2018-02-21T05:13:32.636Z,8.40
2018-02-21T05:14:32.590Z,8.40
2018-02-21T05:15:32.594Z,8.60
2018-02-21T05:16:32.607Z,8.00
2018-02-21T05:17:32.579Z,8.30
2018-02-21T05:18:32.561Z,7.80
2018-02-21T05:19:32.571Z,8.10
2018-02-21T05:20:32.546Z,8.50
2018-02-21T05:21:32.560Z,8.70
2018-02-21T05:22:32.535Z,8.50
2018-02-21T05:23:32.531Z,8.40
2018-02-21T05:24:32.531Z,8.70
2018-02-21T05:25:32.545Z,8.20
2018-02-21T05:26:32.523Z,8.30
2018-02-21T05:27:32.519Z,8.40
2018-02-21T05:28:32.517Z,8.50
2018-02-21T05:29:32.506Z,8.50
2018-02-21T05:30:32.491Z,8.40
2018-02-21T05:31:32.500Z,8.40
2018-02-21T05:32:32.491Z,8.40
2018-02-21T05:33:32.481Z,8.60
2018-02-21T05:34:32.487Z,8.50
2018-02-21T05:35:32.472Z,8.50
2018-02-21T05:36:32.477Z,8.70
2018-02-21T05:37:32.462Z,8.70
2018-02-21T05:38:32.456Z,8.60
2018-02-21T05:39:32.455Z,8.40
2018-02-21T05:40:32.457Z,8.20
2018-02-21T05:41:32.451Z,8.90
2018-02-21T05:42:32.431Z,8.70
2018-02-21T05:43:32.441Z,8.90
2018-02-21T05:44:32.427Z,8.30
2018-02-21T05:45:32.417Z,8.50
2018-02-21T05:46:32.420Z,8.50
2018-02-21T05:47:32.405Z,8.40
2018-02-21T05:48:32.402Z,8.40
2018-02-21T05:49:32.408Z,9.00
2018-02-21T05:50:32.391Z,8.20
2018-02-21T05:51:32.392Z,8.50
2018-02-21T05:52:32.378Z,8.30
2018-02-21T05:53:32.371Z,8.40
2018-02-21T05:54:32.365Z,8.30
2018-02-21T05:55:32.367Z,9.10
2018-02-21T05:56:32.362Z,8.40
2018-02-21T05:57:32.350Z,8.70
2018-02-21T05:58:32.355Z,8.70
2018-02-21T05:59:32.342Z,8.40
2018-02-21T06:00:32.333Z,8.60
2018-02-21T06:01:32.331Z,8.80
2018-02-21T06:02:32.331Z,8.70
2018-02-21T06:03:32.322Z,8.80
2018-02-21T06:04:32.312Z,8.20
2018-02-21T06:05:32.312Z,8.40
2018-02-21T06:06:32.314Z,8.70
2018-02-21T06:07:32.288Z,8.80
2018-02-21T06:08:32.290Z,9.20
2018-02-21T06:09:32.286Z,8.70
2018-02-21T06:10:32.286Z,8.70
2018-02-21T06:11:32.270Z,9.20
2018-02-21T06:12:32.271Z,8.90
2018-02-21T06:13:32.262Z,8.70
2018-02-21T06:14:32.251Z,8.70
2018-02-21T06:15:32.254Z,8.80
2018-02-21T06:16:32.246Z,9.00
2018-02-21T06:17:32.241Z,8.70
2018-02-21T06:18:32.300Z,8.80
2018-02-21T06:19:32.231Z,8.40
2018-02-21T06:20:32.230Z,9.30
2018-02-21T06:21:32.217Z,9.00
2018-02-21T06:22:32.218Z,9.00
2018-02-21T06:23:32.210Z,8.80
2018-02-21T06:24:32.197Z,9.00
2018-02-21T06:25:32.205Z,8.80
2018-02-21T06:26:32.188Z,9.00
2018-02-21T06:27:32.182Z,9.10
2018-02-21T06:28:32.181Z,9.00
2018-02-21T06:29:32.173Z,8.80
2018-02-21T06:30:32.174Z,9.00
2018-02-21T06:31:32.161Z,8.90
2018-02-21T06:32:32.167Z,8.70
2018-02-21T06:33:32.169Z,9.40
2018-02-21T06:34:32.143Z,9.10
2018-02-21T06:35:32.148Z,9.30
2018-02-21T06:36:32.138Z,9.00
2018-02-21T06:37:32.128Z,8.80
2018-02-21T06:38:32.151Z,8.80
2018-02-21T06:39:32.120Z,8.90
2018-02-21T06:40:32.108Z,8.80
2018-02-21T06:41:32.111Z,9.30
2018-02-21T06:42:32.099Z,8.70
2018-02-21T06:43:32.102Z,8.70
2018-02-21T06:44:32.095Z,8.50
2018-02-21T06:45:32.076Z,8.80
2018-02-21T06:46:32.082Z,9.20
2018-02-21T06:47:32.072Z,8.70
2018-02-21T06:48:32.066Z,8.90
2018-02-21T06:49:32.064Z,8.80
2018-02-21T06:50:32.059Z,8.50
2018-02-21T06:51:32.047Z,8.70
2018-02-21T06:52:32.038Z,8.40
2018-02-21T06:53:32.038Z,9.10
2018-02-21T06:54:32.023Z,8.50
2018-02-21T06:55:32.023Z,8.80
2018-02-21T06:56:32.025Z,9.10
2018-02-21T06:57:32.022Z,9.40
2018-02-21T06:58:31.998Z,9.20
2018-02-21T06:59:32.005Z,9.10
2018-02-21T07:00:31.999Z,8.90
2018-02-21T07:01:31.994Z,9.10
2018-02-21T07:02:31.986Z,8.80
2018-02-21T07:03:31.985Z,8.90
2018-02-21T07:04:31.983Z,9.20
2018-02-21T07:05:31.978Z,8.90
2018-02-21T07:06:31.973Z,9.00
2018-02-21T07:07:31.953Z,9.60
2018-02-21T07:08:31.954Z,9.10
2018-02-21T07:09:31.987Z,8.80
2018-02-21T07:10:31.946Z,9.00
2018-02-21T07:11:31.938Z,9.10
2018-02-21T07:12:31.944Z,8.80
2018-02-21T07:13:31.926Z,8.70
2018-02-21T07:14:31.911Z,9.30
2018-02-21T07:15:31.985Z,9.40
2018-02-21T07:16:31.913Z,8.90
2018-02-21T07:17:31.912Z,9.20
2018-02-21T07:18:31.902Z,8.50
2018-02-21T07:19:31.885Z,9.00
2018-02-21T07:20:31.888Z,8.60
2018-02-21T07:21:31.885Z,9.20
2018-02-21T07:22:31.877Z,9.10
2018-02-21T07:23:31.877Z,9.10
2018-02-21T07:24:31.863Z,9.40
2018-02-21T07:25:31.858Z,9.70
2018-02-21T07:26:31.859Z,9.60
2018-02-21T07:27:31.849Z,9.10
2018-02-21T07:28:31.846Z,9.10
2018-02-21T07:29:31.837Z,9.40
2018-02-21T07:30:31.827Z,9.20
2018-02-21T07:31:31.869Z,9.40
2018-02-21T07:32:31.823Z,9.30
2018-02-21T07:33:31.809Z,9.40
2018-02-21T07:34:31.810Z,9.60
2018-02-21T07:35:31.802Z,9.80
2018-02-21T07:36:31.800Z,9.40
2018-02-21T07:37:31.788Z,9.50
2018-02-21T07:38:31.785Z,9.30
2018-02-21T07:39:31.787Z,9.40
2018-02-21T07:40:31.776Z,9.20
2018-02-21T07:41:31.773Z,9.70
2018-02-21T07:42:31.763Z,9.20
2018-02-21T07:43:31.768Z,9.70
2018-02-21T07:44:31.758Z,9.30
2018-02-21T07:45:31.762Z,9.70
2018-02-21T07:46:31.738Z,9.30
2018-02-21T07:47:31.743Z,9.70
2018-02-21T07:48:31.747Z,9.70
2018-02-21T07:49:31.733Z,9.30
2018-02-21T07:50:31.719Z,9.80
2018-02-21T07:51:31.708Z,9.90
2018-02-21T07:52:31.703Z,9.40
2018-02-21T07:53:31.699Z,9.90
2018-02-21T07:54:31.703Z,10.00
2018-02-21T07:55:31.690Z,9.30
2018-02-21T07:56:31.684Z,9.60
2018-02-21T07:57:31.685Z,9.60
2018-02-21T07:58:31.679Z,9.70
2018-02-21T07:59:31.664Z,9.70
2018-02-21T08:00:31.660Z,9.80
2018-02-21T08:01:31.654Z,9.70
2018-02-21T08:02:31.653Z,9.80
2018-02-21T08:03:31.639Z,9.30
2018-02-21T08:04:31.634Z,9.30
2018-02-21T08:05:31.645Z,9.30
2018-02-21T08:06:31.657Z,9.70
2018-02-21T08:07:31.633Z,9.80
2018-02-21T08:08:31.623Z,9.90
2018-02-21T08:09:31.623Z,9.60
2018-02-21T08:10:31.608Z,10.00
2018-02-21T08:11:31.593Z,9.70
2018-02-21T08:12:31.600Z,9.90
2018-02-21T08:13:31.599Z,9.70
2018-02-21T08:14:31.584Z,10.00
2018-02-21T08:15:31.583Z,10.20
2018-02-21T08:16:31.578Z,9.80
2018-02-21T08:17:31.585Z,9.80
2018-02-21T08:18:31.570Z,9.90
2018-02-21T08:19:31.565Z,9.40
2018-02-21T08:20:31.568Z,10.10
2018-02-21T08:21:31.556Z,9.50
2018-02-21T08:22:31.550Z,9.80
2018-02-21T08:23:31.563Z,10.30
2018-02-21T08:24:31.539Z,9.70
2018-02-21T08:25:31.519Z,10.80
2018-02-21T08:26:31.523Z,10.30
2018-02-21T08:27:31.517Z,10.30
2018-02-21T08:28:31.519Z,11.20
2018-02-21T08:29:31.509Z,10.80
2018-02-21T08:30:31.504Z,10.20
2018-02-21T08:31:31.501Z,10.90
2018-02-21T08:32:31.493Z,10.70
2018-02-21T08:33:31.497Z,10.70
2018-02-21T08:34:31.484Z,11.00
2018-02-21T08:35:31.480Z,11.60
2018-02-21T08:36:31.466Z,10.80
2018-02-21T08:37:31.463Z,11.20
2018-02-21T08:38:31.464Z,11.40
2018-02-21T08:39:31.456Z,11.70
2018-02-21T08:40:31.452Z,12.20
2018-02-21T08:41:31.448Z,12.20
2018-02-21T08:42:31.441Z,12.00
2018-02-21T08:43:31.420Z,11.80
2018-02-21T08:44:31.428Z,11.60
2018-02-21T08:45:31.424Z,12.10
2018-02-21T08:46:31.424Z,11.50
2018-02-21T08:47:31.429Z,11.80
2018-02-21T08:48:31.426Z,11.10
2018-02-21T08:49:31.401Z,10.90
2018-02-21T08:50:31.392Z,10.90
2018-02-21T08:51:31.386Z,11.20
2018-02-21T08:52:31.401Z,10.50
2018-02-21T08:53:31.385Z,10.70
2018-02-21T08:54:31.376Z,10.80
2018-02-21T08:55:31.369Z,10.80
2018-02-21T08:56:31.375Z,10.40
2018-02-21T08:57:31.355Z,10.30
2018-02-21T08:58:31.360Z,10.70
2018-02-21T08:59:31.354Z,10.70
2018-02-21T09:00:31.342Z,10.40
2018-02-21T09:01:31.338Z,9.90
2018-02-21T09:02:31.331Z,10.00
2018-02-21T09:03:31.329Z,9.60
2018-02-21T09:04:31.314Z,9.90
2018-02-21T09:05:31.315Z,10.00
2018-02-21T09:06:31.338Z,10.10
2018-02-21T09:07:31.311Z,9.80
2018-02-21T09:08:31.295Z,9.90
2018-02-21T09:09:31.295Z,9.40
2018-02-21T09:10:31.306Z,10.00
2018-02-21T09:11:31.292Z,9.80
2018-02-21T09:12:31.280Z,9.50
2018-02-21T09:13:31.274Z,9.80
2018-02-21T09:14:31.267Z,10.60
2018-02-21T09:15:31.263Z,10.20
2018-02-21T09:16:31.267Z,9.60
2018-02-21T09:17:31.255Z,9.50
2018-02-21T09:18:31.250Z,9.90
2018-02-21T09:19:31.245Z,10.20
2018-02-21T09:20:31.246Z,9.70
2018-02-21T09:21:31.243Z,9.90
2018-02-21T09:22:31.231Z,9.40
2018-02-21T09:23:31.231Z,10.10
2018-02-21T09:24:31.231Z,10.00
2018-02-21T09:25:31.243Z,10.30
2018-02-21T09:26:31.212Z,10.10
2018-02-21T09:27:31.208Z,10.10
2018-02-21T09:28:31.205Z,10.50
2018-02-21T09:29:31.199Z,10.00
2018-02-21T09:30:31.191Z,9.50
2018-02-21T09:31:31.191Z,9.70
2018-02-21T09:32:31.175Z,10.00
2018-02-21T09:33:31.176Z,9.10
2018-02-21T09:34:31.169Z,9.50
2018-02-21T09:35:31.169Z,9.50
2018-02-21T09:36:31.150Z,9.50
2018-02-21T09:37:31.155Z,10.10
2018-02-21T09:38:31.150Z,9.70
2018-02-21T09:39:31.171Z,10.30
2018-02-21T09:40:31.144Z,10.10
2018-02-21T09:41:31.151Z,9.80
2018-02-21T09:42:31.132Z,9.80
2018-02-21T09:43:31.117Z,10.20
2018-02-21T09:44:31.117Z,10.40
2018-02-21T09:45:31.120Z,10.10
2018-02-21T09:46:31.112Z,10.20
2018-02-21T09:47:31.109Z,10.10
2018-02-21T09:48:31.103Z,9.60
2018-02-21T09:49:31.098Z,10.50
2018-02-21T09:50:31.092Z,9.90
2018-02-21T09:51:31.088Z,10.00
2018-02-21T09:52:31.080Z,9.80
2018-02-21T09:53:31.072Z,10.30
2018-02-21T09:54:31.070Z,10.50
2018-02-21T09:55:31.062Z,10.50
2018-02-21T09:56:31.056Z,11.10
2018-02-21T09:57:31.052Z,10.00
2018-02-21T09:58:31.051Z,10.30
2018-02-21T09:59:31.042Z,10.10
2018-02-21T10:00:31.040Z,10.40
2018-02-21T10:01:31.040Z,10.60
2018-02-21T10:02:31.030Z,10.50
2018-02-21T10:03:31.031Z,10.40
2018-02-21T10:04:31.020Z,10.30
2018-02-21T10:05:31.022Z,10.10
2018-02-21T10:06:31.025Z,10.60
2018-02-21T10:07:31.008Z,10.50
2018-02-21T10:08:31.000Z,10.50
2018-02-21T10:09:30.998Z,10.50
2018-02-21T10:10:30.990Z,10.60
2018-02-21T10:11:30.991Z,9.70
2018-02-21T10:12:30.982Z,10.40
2018-02-21T10:13:30.985Z,10.30
2018-02-21T10:14:30.962Z,10.10
2018-02-21T10:15:30.970Z,10.30
2018-02-21T10:16:30.966Z,10.30
2018-02-21T10:17:30.956Z,10.60
2018-02-21T10:18:30.962Z,10.40
2018-02-21T10:19:30.951Z,10.10
2018-02-21T10:20:30.952Z,10.40
2018-02-21T10:21:30.937Z,10.60
2018-02-21T10:22:30.941Z,10.40
2018-02-21T10:23:30.930Z,10.10
2018-02-21T10:24:30.921Z,10.90
2018-02-21T10:25:30.923Z,10.60
2018-02-21T10:26:30.916Z,10.20
2018-02-21T10:27:30.902Z,10.40
2018-02-21T10:28:30.901Z,10.20
2018-02-21T10:29:30.903Z,10.60
2018-02-21T10:30:30.890Z,10.70
2018-02-21T10:31:30.898Z,9.80
2018-02-21T10:32:30.906Z,10.10
2018-02-21T10:33:30.885Z,10.30
2018-02-21T10:34:30.871Z,10.40
2018-02-21T10:35:30.871Z,10.40
2018-02-21T10:36:30.873Z,10.50
2018-02-21T10:37:30.873Z,10.80
2018-02-21T10:38:30.865Z,10.70
2018-02-21T10:39:30.853Z,10.40
2018-02-21T10:40:30.846Z,10.80
2018-02-21T10:41:30.843Z,10.30
2018-02-21T10:42:30.833Z,10.40
2018-02-21T10:43:30.851Z,10.80
2018-02-21T10:44:30.824Z,10.20
2018-02-21T10:45:30.838Z,10.90
2018-02-21T10:46:30.823Z,11.00
2018-02-21T10:47:30.808Z,10.50
2018-02-21T10:48:30.808Z,9.90
2018-02-21T10:49:30.802Z,10.20
2018-02-21T10:50:30.793Z,10.70
2018-02-21T10:51:30.812Z,10.50
2018-02-21T10:52:30.798Z,10.40
2018-02-21T10:53:30.787Z,10.50
2018-02-21T10:54:30.784Z,10.90
2018-02-21T10:55:30.778Z,10.50
2018-02-21T10:56:30.764Z,11.40
2018-02-21T10:57:30.772Z,10.30
2018-02-21T10:58:30.763Z,10.30
2018-02-21T10:59:30.758Z,10.00
2018-02-21T11:00:30.759Z,10.30
2018-02-21T11:01:30.748Z,10.50
2018-02-21T11:02:30.758Z,10.40
2018-02-21T11:03:30.741Z,10.30
2018-02-21T11:04:30.728Z,10.00
2018-02-21T11:05:30.730Z,10.40
2018-02-21T11:06:30.727Z,10.30
2018-02-21T11:07:30.720Z,10.70
2018-02-21T11:08:30.719Z,10.40
2018-02-21T11:09:30.727Z,9.80
2018-02-21T11:10:30.716Z,10.30
2018-02-21T11:11:30.699Z,10.50
2018-02-21T11:12:30.689Z,10.70
2018-02-21T11:13:30.703Z,10.20
2018-02-21T11:14:30.681Z,9.90
2018-02-21T11:15:30.680Z,10.20
2018-02-21T11:16:30.678Z,10.60
2018-02-21T11:17:30.684Z,10.60
2018-02-21T11:18:30.681Z,10.90
2018-02-21T11:19:30.674Z,10.70
2018-02-21T11:20:30.658Z,9.90
2018-02-21T11:21:30.661Z,10.40
2018-02-21T11:22:30.642Z,10.40
2018-02-21T11:23:30.711Z,10.20
2018-02-21T11:24:30.648Z,10.50
2018-02-21T11:25:30.638Z,9.90
2018-02-21T11:26:30.638Z,10.20
2018-02-21T11:27:30.639Z,10.20
2018-02-21T11:28:30.639Z,10.20
2018-02-21T11:29:30.625Z,10.60
2018-02-21T11:30:30.608Z,10.10
2018-02-21T11:31:30.619Z,10.40
2018-02-21T11:32:30.602Z,10.00
2018-02-21T11:33:30.596Z,11.00
2018-02-21T11:34:30.602Z,10.60
2018-02-21T11:35:30.587Z,10.20
2018-02-21T11:36:30.580Z,10.20
2018-02-21T11:37:30.573Z,10.10
2018-02-21T11:38:30.574Z,10.00
2018-02-21T11:39:30.573Z,9.80
2018-02-21T11:40:30.572Z,9.80
2018-02-21T11:41:30.552Z,10.30
2018-02-21T11:42:30.550Z,9.90
2018-02-21T11:43:30.557Z,10.70
2018-02-21T11:44:30.546Z,10.70
2018-02-21T11:45:30.562Z,10.40
2018-02-21T11:46:30.550Z,10.30
2018-02-21T11:47:30.529Z,10.60
2018-02-21T11:48:30.546Z,10.40
2018-02-21T11:49:30.562Z,10.40
2018-02-21T11:50:30.534Z,10.10
2018-02-21T11:51:30.513Z,9.70
2018-02-21T11:52:30.513Z,10.50
2018-02-21T11:53:30.519Z,9.70
2018-02-21T11:54:30.509Z,9.90
2018-02-21T11:55:30.493Z,10.20
2018-02-21T11:56:30.497Z,10.30
2018-02-21T11:57:30.483Z,10.50
2018-02-21T11:58:30.480Z,10.30
2018-02-21T11:59:30.482Z,10.00
2018-02-21T12:00:30.471Z,10.40
2018-02-21T12:01:30.486Z,9.90
2018-02-21T12:02:30.469Z,10.20
2018-02-21T12:03:30.457Z,10.00
2018-02-21T12:04:30.460Z,9.50
2018-02-21T12:05:30.451Z,10.20
2018-02-21T12:06:30.452Z,9.70
2018-02-21T12:07:30.452Z,10.10
2018-02-21T12:08:30.448Z,10.20
2018-02-21T12:09:30.437Z,10.00
2018-02-21T12:10:30.434Z,10.20
2018-02-21T12:11:30.428Z,9.50
2018-02-21T12:12:30.413Z,10.80
2018-02-21T12:13:30.409Z,9.60
2018-02-21T12:14:30.405Z,10.00
2018-02-21T12:15:30.404Z,10.10
2018-02-21T12:16:30.399Z,9.60
2018-02-21T12:17:30.398Z,9.80
2018-02-21T12:18:30.393Z,9.80
2018-02-21T12:19:30.383Z,9.70
2018-02-21T12:20:30.377Z,9.70
2018-02-21T12:21:30.375Z,9.90
2018-02-21T12:22:30.372Z,10.10
2018-02-21T12:23:30.368Z,9.70
2018-02-21T12:24:30.368Z,9.90
2018-02-21T12:25:30.349Z,9.70
2018-02-21T12:26:30.345Z,10.10
2018-02-21T12:27:30.357Z,9.80
2018-02-21T12:28:30.338Z,10.10
2018-02-21T12:29:30.348Z,9.70
2018-02-21T12:30:30.339Z,9.60
2018-02-21T12:31:30.332Z,9.70
2018-02-21T12:32:30.326Z,9.80
2018-02-21T12:33:30.320Z,9.90
2018-02-21T12:34:30.324Z,9.90
2018-02-21T12:35:30.323Z,9.10
2018-02-21T12:36:30.323Z,9.90
2018-02-21T12:37:30.303Z,10.00
2018-02-21T12:38:30.304Z,9.60
2018-02-21T12:39:30.287Z,10.20
2018-02-21T12:40:30.291Z,9.40
2018-02-21T12:41:30.294Z,9.90
2018-02-21T12:42:30.299Z,10.30
2018-02-21T12:43:30.273Z,9.90
2018-02-21T12:44:30.273Z,9.70
2018-02-21T12:45:30.266Z,9.40
2018-02-21T12:46:30.249Z,9.60
2018-02-21T12:47:30.246Z,9.70
2018-02-21T12:48:30.249Z,10.30
2018-02-21T12:49:30.240Z,9.80
2018-02-21T12:50:30.241Z,9.70
2018-02-21T12:51:30.241Z,9.40
2018-02-21T12:52:30.221Z,9.70
2018-02-21T12:53:30.238Z,9.80
2018-02-21T12:54:30.219Z,9.90
2018-02-21T12:55:30.261Z,9.20
2018-02-21T12:56:30.224Z,9.70
2018-02-21T12:57:30.202Z,9.50
2018-02-21T12:58:30.199Z,9.60
2018-02-21T12:59:30.193Z,9.80
2018-02-21T13:00:30.194Z,9.80
2018-02-21T13:01:30.225Z,9.60
2018-02-21T13:02:30.182Z,9.50
2018-02-21T13:03:30.182Z,10.10
2018-02-21T13:04:30.174Z,10.00
2018-02-21T13:05:30.169Z,9.50
2018-02-21T13:06:30.154Z,9.70
2018-02-21T13:07:30.160Z,10.00
2018-02-21T13:08:30.159Z,9.60
2018-02-21T13:09:30.152Z,10.20
2018-02-21T13:10:30.144Z,9.90
2018-02-21T13:11:30.146Z,9.90